sensor_id;sensor_type;location;lat;lon;timestamp;P1;durP1;ratioP1;P2;durP2;ratioP2
75303;SDS011;64042;50.916;6.988;2022-11-13T00:01:42;2.63;;;2.42;;
75303;SDS011;64042;50.916;6.988;2022-11-13T00:04:07;3.07;;;2.87;;
75303;SDS011;64042;50.916;6.988;2022-11-13T00:06:34;3.53;;;3.30;;
75303;SDS011;64042;50.916;6.988;2022-11-13T00:08:59;3.40;;;3.10;;
75303;SDS011;64042;50.916;6.988;2022-11-13T00:11:25;3.40;;;3.13;;
75303;SDS011;64042;50.916;6.988;2022-11-13T00:13:50;3.70;;;3.40;;
75303;SDS011;64042;50.916;6.988;2022-11-13T00:16:17;3.22;;;2.85;;
75303;SDS011;64042;50.916;6.988;2022-11-13T00:18:44;2.70;;;2.50;;
75303;SDS011;64042;50.916;6.988;2022-11-13T00:21:10;3.65;;;3.35;;
75303;SDS011;64042;50.916;6.988;2022-11-13T00:23:38;4.07;;;3.78;;
75303;SDS011;64042;50.916;6.988;2022-11-13T00:28:29;3.22;;;2.80;;
75303;SDS011;64042;50.916;6.988;2022-11-13T00:30:59;4.45;;;3.38;;
75303;SDS011;64042;50.916;6.988;2022-11-13T00:33:25;3.42;;;3.13;;
75303;SDS011;64042;50.916;6.988;2022-11-13T00:35:50;3.10;;;2.80;;
75303;SDS011;64042;50.916;6.988;2022-11-13T00:38:15;3.28;;;3.08;;
75303;SDS011;64042;50.916;6.988;2022-11-13T00:40:41;3.37;;;3.17;;
75303;SDS011;64042;50.916;6.988;2022-11-13T00:43:06;2.63;;;2.42;;
75303;SDS011;64042;50.916;6.988;2022-11-13T00:45:31;3.55;;;3.25;;
75303;SDS011;64042;50.916;6.988;2022-11-13T00:47:57;3.13;;;2.83;;
75303;SDS011;64042;50.916;6.988;2022-11-13T00:50:22;3.33;;;3.03;;
75303;SDS011;64042;50.916;6.988;2022-11-13T00:52:47;3.33;;;3.13;;
75303;SDS011;64042;50.916;6.988;2022-11-13T00:55:12;2.40;;;2.20;;
75303;SDS011;64042;50.916;6.988;2022-11-13T00:57:38;2.75;;;2.55;;
75303;SDS011;64042;50.916;6.988;2022-11-13T01:00:03;2.80;;;2.60;;
75303;SDS011;64042;50.916;6.988;2022-11-13T01:02:29;3.30;;;3.00;;
75303;SDS011;64042;50.916;6.988;2022-11-13T01:04:54;2.33;;;2.20;;
75303;SDS011;64042;50.916;6.988;2022-11-13T01:07:19;3.17;;;2.90;;
75303;SDS011;64042;50.916;6.988;2022-11-13T01:09:48;2.47;;;2.27;;
75303;SDS011;64042;50.916;6.988;2022-11-13T01:12:14;2.70;;;2.50;;
75303;SDS011;64042;50.916;6.988;2022-11-13T01:14:40;2.47;;;2.27;;
75303;SDS011;64042;50.916;6.988;2022-11-13T01:17:06;2.47;;;2.28;;
75303;SDS011;64042;50.916;6.988;2022-11-13T01:19:31;3.23;;;3.03;;
75303;SDS011;64042;50.916;6.988;2022-11-13T01:21:56;2.83;;;2.63;;
75303;SDS011;64042;50.916;6.988;2022-11-13T01:24:22;2.90;;;2.70;;
75303;SDS011;64042;50.916;6.988;2022-11-13T01:26:47;3.28;;;2.97;;
75303;SDS011;64042;50.916;6.988;2022-11-13T01:29:12;2.97;;;2.77;;
75303;SDS011;64042;50.916;6.988;2022-11-13T01:31:37;3.22;;;2.92;;
75303;SDS011;64042;50.916;6.988;2022-11-13T01:34:03;3.22;;;3.03;;
75303;SDS011;64042;50.916;6.988;2022-11-13T01:36:28;2.73;;;2.63;;
75303;SDS011;64042;50.916;6.988;2022-11-13T01:38:54;3.03;;;2.72;;
75303;SDS011;64042;50.916;6.988;2022-11-13T01:41:21;3.53;;;3.25;;
75303;SDS011;64042;50.916;6.988;2022-11-13T01:43:49;2.47;;;2.30;;
75303;SDS011;64042;50.916;6.988;2022-11-13T01:48:54;3.38;;;3.08;;
75303;SDS011;64042;50.916;6.988;2022-11-13T01:51:31;4.18;;;3.88;;
75303;SDS011;64042;50.916;6.988;2022-11-13T01:54:00;2.72;;;2.53;;
75303;SDS011;64042;50.916;6.988;2022-11-13T01:56:28;2.70;;;2.50;;
75303;SDS011;64042;50.916;6.988;2022-11-13T01:59:00;2.53;;;2.33;;
75303;SDS011;64042;50.916;6.988;2022-11-13T02:01:31;3.03;;;2.83;;
75303;SDS011;64042;50.916;6.988;2022-11-13T02:03:56;3.17;;;2.97;;
75303;SDS011;64042;50.916;6.988;2022-11-13T02:06:21;3.43;;;3.20;;
75303;SDS011;64042;50.916;6.988;2022-11-13T02:08:47;2.55;;;2.25;;
75303;SDS011;64042;50.916;6.988;2022-11-13T02:11:13;2.58;;;2.38;;
75303;SDS011;64042;50.916;6.988;2022-11-13T02:13:38;3.55;;;3.25;;
75303;SDS011;64042;50.916;6.988;2022-11-13T02:16:05;3.78;;;3.47;;
75303;SDS011;64042;50.916;6.988;2022-11-13T02:18:31;2.60;;;2.40;;
75303;SDS011;64042;50.916;6.988;2022-11-13T02:26:22;3.90;;;3.60;;
75303;SDS011;64042;50.916;6.988;2022-11-13T02:28:49;3.10;;;2.90;;
75303;SDS011;64042;50.916;6.988;2022-11-13T02:31:14;2.47;;;2.28;;
75303;SDS011;64042;50.916;6.988;2022-11-13T02:33:39;3.17;;;2.97;;
75303;SDS011;64042;50.916;6.988;2022-11-13T02:36:05;3.00;;;2.50;;
75303;SDS011;64042;50.916;6.988;2022-11-13T02:38:33;3.28;;;3.05;;
75303;SDS011;64042;50.916;6.988;2022-11-13T02:40:59;2.72;;;2.50;;
75303;SDS011;64042;50.916;6.988;2022-11-13T02:43:24;3.35;;;2.65;;
75303;SDS011;64042;50.916;6.988;2022-11-13T02:45:49;2.33;;;2.17;;
75303;SDS011;64042;50.916;6.988;2022-11-13T02:48:15;2.90;;;2.70;;
75303;SDS011;64042;50.916;6.988;2022-11-13T02:50:40;3.63;;;2.53;;
75303;SDS011;64042;50.916;6.988;2022-11-13T02:53:06;3.47;;;2.90;;
75303;SDS011;64042;50.916;6.988;2022-11-13T02:55:31;2.47;;;2.28;;
75303;SDS011;64042;50.916;6.988;2022-11-13T02:57:57;2.38;;;2.17;;
75303;SDS011;64042;50.916;6.988;2022-11-13T03:00:22;2.87;;;2.67;;
75303;SDS011;64042;50.916;6.988;2022-11-13T03:02:47;2.65;;;2.45;;
75303;SDS011;64042;50.916;6.988;2022-11-13T03:05:13;4.47;;;4.23;;
75303;SDS011;64042;50.916;6.988;2022-11-13T03:07:38;3.40;;;3.10;;
75303;SDS011;64042;50.916;6.988;2022-11-13T03:10:03;3.13;;;2.92;;
75303;SDS011;64042;50.916;6.988;2022-11-13T03:12:29;3.05;;;2.85;;
75303;SDS011;64042;50.916;6.988;2022-11-13T03:14:54;2.63;;;2.42;;
75303;SDS011;64042;50.916;6.988;2022-11-13T03:17:20;3.00;;;2.80;;
75303;SDS011;64042;50.916;6.988;2022-11-13T03:19:45;3.25;;;3.05;;
75303;SDS011;64042;50.916;6.988;2022-11-13T03:22:10;4.13;;;2.67;;
75303;SDS011;64042;50.916;6.988;2022-11-13T03:24:35;4.27;;;3.97;;
75303;SDS011;64042;50.916;6.988;2022-11-13T03:27:01;3.42;;;3.13;;
75303;SDS011;64042;50.916;6.988;2022-11-13T03:29:26;2.50;;;2.30;;
75303;SDS011;64042;50.916;6.988;2022-11-13T03:31:51;3.80;;;3.60;;
75303;SDS011;64042;50.916;6.988;2022-11-13T03:34:16;2.60;;;2.40;;
75303;SDS011;64042;50.916;6.988;2022-11-13T03:36:42;2.47;;;2.37;;
75303;SDS011;64042;50.916;6.988;2022-11-13T03:39:07;3.50;;;3.30;;
75303;SDS011;64042;50.916;6.988;2022-11-13T03:41:33;2.60;;;2.40;;
75303;SDS011;64042;50.916;6.988;2022-11-13T03:43:58;2.63;;;2.43;;
75303;SDS011;64042;50.916;6.988;2022-11-13T03:46:23;3.10;;;2.80;;
75303;SDS011;64042;50.916;6.988;2022-11-13T03:48:49;3.10;;;2.90;;
75303;SDS011;64042;50.916;6.988;2022-11-13T03:51:14;2.90;;;2.70;;
75303;SDS011;64042;50.916;6.988;2022-11-13T03:53:39;2.60;;;2.40;;
75303;SDS011;64042;50.916;6.988;2022-11-13T03:56:04;3.35;;;3.15;;
75303;SDS011;64042;50.916;6.988;2022-11-13T03:58:30;3.05;;;2.85;;
75303;SDS011;64042;50.916;6.988;2022-11-13T04:00:55;2.90;;;2.70;;
75303;SDS011;64042;50.916;6.988;2022-11-13T04:03:21;2.30;;;2.10;;
75303;SDS011;64042;50.916;6.988;2022-11-13T04:05:47;2.67;;;2.47;;
75303;SDS011;64042;50.916;6.988;2022-11-13T04:08:13;2.90;;;2.70;;
75303;SDS011;64042;50.916;6.988;2022-11-13T04:10:39;2.80;;;2.60;;
75303;SDS011;64042;50.916;6.988;2022-11-13T04:13:05;2.42;;;2.22;;
75303;SDS011;64042;50.916;6.988;2022-11-13T04:15:30;2.73;;;2.53;;
75303;SDS011;64042;50.916;6.988;2022-11-13T04:17:55;2.50;;;2.30;;
75303;SDS011;64042;50.916;6.988;2022-11-13T04:20:21;2.10;;;2.00;;
75303;SDS011;64042;50.916;6.988;2022-11-13T04:22:46;2.75;;;2.55;;
75303;SDS011;64042;50.916;6.988;2022-11-13T04:25:11;3.13;;;2.13;;
75303;SDS011;64042;50.916;6.988;2022-11-13T04:27:37;2.97;;;2.78;;
75303;SDS011;64042;50.916;6.988;2022-11-13T04:30:02;4.05;;;3.75;;
75303;SDS011;64042;50.916;6.988;2022-11-13T04:32:28;3.20;;;3.00;;
75303;SDS011;64042;50.916;6.988;2022-11-13T04:34:54;2.40;;;2.20;;
75303;SDS011;64042;50.916;6.988;2022-11-13T04:37:19;2.63;;;2.43;;
75303;SDS011;64042;50.916;6.988;2022-11-13T04:39:44;2.90;;;2.70;;
75303;SDS011;64042;50.916;6.988;2022-11-13T04:42:10;2.50;;;2.23;;
75303;SDS011;64042;50.916;6.988;2022-11-13T04:44:54;3.60;;;2.65;;
75303;SDS011;64042;50.916;6.988;2022-11-13T04:47:20;3.15;;;2.10;;
75303;SDS011;64042;50.916;6.988;2022-11-13T04:49:45;2.80;;;2.53;;
75303;SDS011;64042;50.916;6.988;2022-11-13T04:52:10;2.63;;;2.43;;
75303;SDS011;64042;50.916;6.988;2022-11-13T04:54:36;2.42;;;2.22;;
75303;SDS011;64042;50.916;6.988;2022-11-13T04:57:02;3.42;;;3.22;;
75303;SDS011;64042;50.916;6.988;2022-11-13T04:59:27;2.53;;;2.38;;
75303;SDS011;64042;50.916;6.988;2022-11-13T05:01:52;2.47;;;2.28;;
75303;SDS011;64042;50.916;6.988;2022-11-13T05:04:19;2.63;;;2.42;;
75303;SDS011;64042;50.916;6.988;2022-11-13T05:06:44;2.65;;;2.45;;
75303;SDS011;64042;50.916;6.988;2022-11-13T05:09:10;2.55;;;2.13;;
75303;SDS011;64042;50.916;6.988;2022-11-13T05:11:35;1.93;;;1.80;;
75303;SDS011;64042;50.916;6.988;2022-11-13T05:14:00;3.37;;;3.17;;
75303;SDS011;64042;50.916;6.988;2022-11-13T05:16:26;3.33;;;2.10;;
75303;SDS011;64042;50.916;6.988;2022-11-13T05:18:51;2.75;;;2.55;;
75303;SDS011;64042;50.916;6.988;2022-11-13T05:21:16;2.53;;;2.33;;
75303;SDS011;64042;50.916;6.988;2022-11-13T05:23:41;3.33;;;3.13;;
75303;SDS011;64042;50.916;6.988;2022-11-13T05:26:11;2.77;;;2.57;;
75303;SDS011;64042;50.916;6.988;2022-11-13T05:28:37;2.78;;;2.58;;
75303;SDS011;64042;50.916;6.988;2022-11-13T05:31:07;2.38;;;2.28;;
75303;SDS011;64042;50.916;6.988;2022-11-13T05:33:34;3.20;;;2.97;;
75303;SDS011;64042;50.916;6.988;2022-11-13T05:36:01;3.45;;;3.22;;
75303;SDS011;64042;50.916;6.988;2022-11-13T05:38:27;3.38;;;3.17;;
75303;SDS011;64042;50.916;6.988;2022-11-13T05:40:53;2.25;;;2.15;;
75303;SDS011;64042;50.916;6.988;2022-11-13T05:43:18;3.35;;;3.15;;
75303;SDS011;64042;50.916;6.988;2022-11-13T05:45:43;3.10;;;2.90;;
75303;SDS011;64042;50.916;6.988;2022-11-13T05:48:08;2.13;;;1.93;;
75303;SDS011;64042;50.916;6.988;2022-11-13T05:50:34;2.70;;;2.50;;
75303;SDS011;64042;50.916;6.988;2022-11-13T05:52:59;2.60;;;2.40;;
75303;SDS011;64042;50.916;6.988;2022-11-13T05:55:24;2.73;;;2.53;;
75303;SDS011;64042;50.916;6.988;2022-11-13T05:57:49;3.70;;;3.50;;
75303;SDS011;64042;50.916;6.988;2022-11-13T06:00:15;3.87;;;3.63;;
75303;SDS011;64042;50.916;6.988;2022-11-13T06:02:41;3.05;;;2.85;;
75303;SDS011;64042;50.916;6.988;2022-11-13T06:05:06;2.53;;;2.33;;
75303;SDS011;64042;50.916;6.988;2022-11-13T06:07:32;2.40;;;2.20;;
75303;SDS011;64042;50.916;6.988;2022-11-13T06:09:57;3.23;;;3.03;;
75303;SDS011;64042;50.916;6.988;2022-11-13T06:12:22;2.20;;;2.10;;
75303;SDS011;64042;50.916;6.988;2022-11-13T06:14:47;2.47;;;2.27;;
75303;SDS011;64042;50.916;6.988;2022-11-13T06:17:13;3.00;;;2.80;;
75303;SDS011;64042;50.916;6.988;2022-11-13T06:19:38;2.53;;;2.33;;
75303;SDS011;64042;50.916;6.988;2022-11-13T06:22:03;2.70;;;2.50;;
75303;SDS011;64042;50.916;6.988;2022-11-13T06:24:28;2.50;;;2.30;;
75303;SDS011;64042;50.916;6.988;2022-11-13T06:26:54;4.30;;;4.10;;
75303;SDS011;64042;50.916;6.988;2022-11-13T06:29:19;2.27;;;2.10;;
75303;SDS011;64042;50.916;6.988;2022-11-13T06:31:44;3.50;;;3.30;;
75303;SDS011;64042;50.916;6.988;2022-11-13T06:34:09;2.63;;;2.43;;
75303;SDS011;64042;50.916;6.988;2022-11-13T06:36:35;2.90;;;2.70;;
75303;SDS011;64042;50.916;6.988;2022-11-13T06:39:03;2.63;;;2.42;;
75303;SDS011;64042;50.916;6.988;2022-11-13T06:41:29;2.20;;;2.10;;
75303;SDS011;64042;50.916;6.988;2022-11-13T06:43:55;2.38;;;2.17;;
75303;SDS011;64042;50.916;6.988;2022-11-13T06:46:23;2.92;;;2.45;;
75303;SDS011;64042;50.916;6.988;2022-11-13T06:48:50;3.03;;;2.83;;
75303;SDS011;64042;50.916;6.988;2022-11-13T06:51:20;2.40;;;2.22;;
75303;SDS011;64042;50.916;6.988;2022-11-13T06:53:49;2.63;;;2.42;;
75303;SDS011;64042;50.916;6.988;2022-11-13T06:56:14;2.92;;;2.72;;
75303;SDS011;64042;50.916;6.988;2022-11-13T06:58:41;2.60;;;2.40;;
75303;SDS011;64042;50.916;6.988;2022-11-13T07:01:18;2.95;;;2.75;;
75303;SDS011;64042;50.916;6.988;2022-11-13T07:03:44;3.15;;;2.95;;
75303;SDS011;64042;50.916;6.988;2022-11-13T07:06:11;2.75;;;2.55;;
75303;SDS011;64042;50.916;6.988;2022-11-13T07:08:38;2.35;;;2.15;;
75303;SDS011;64042;50.916;6.988;2022-11-13T07:11:05;2.40;;;2.20;;
75303;SDS011;64042;50.916;6.988;2022-11-13T07:13:31;2.50;;;2.30;;
75303;SDS011;64042;50.916;6.988;2022-11-13T07:16:00;2.97;;;2.78;;
75303;SDS011;64042;50.916;6.988;2022-11-13T07:18:27;2.45;;;2.25;;
75303;SDS011;64042;50.916;6.988;2022-11-13T07:20:52;2.88;;;2.67;;
75303;SDS011;64042;50.916;6.988;2022-11-13T07:23:18;2.07;;;1.97;;
75303;SDS011;64042;50.916;6.988;2022-11-13T07:25:43;2.77;;;2.57;;
75303;SDS011;64042;50.916;6.988;2022-11-13T07:28:08;2.40;;;2.20;;
75303;SDS011;64042;50.916;6.988;2022-11-13T07:30:33;2.78;;;2.58;;
75303;SDS011;64042;50.916;6.988;2022-11-13T07:33:02;3.13;;;2.93;;
75303;SDS011;64042;50.916;6.988;2022-11-13T07:35:28;4.20;;;2.88;;
75303;SDS011;64042;50.916;6.988;2022-11-13T07:37:54;2.40;;;2.20;;
75303;SDS011;64042;50.916;6.988;2022-11-13T07:40:20;3.38;;;3.17;;
75303;SDS011;64042;50.916;6.988;2022-11-13T07:42:45;4.17;;;3.87;;
75303;SDS011;64042;50.916;6.988;2022-11-13T07:45:10;3.67;;;2.20;;
75303;SDS011;64042;50.916;6.988;2022-11-13T07:47:35;2.63;;;2.42;;
75303;SDS011;64042;50.916;6.988;2022-11-13T07:50:01;3.75;;;2.45;;
75303;SDS011;64042;50.916;6.988;2022-11-13T07:52:26;2.65;;;2.47;;
75303;SDS011;64042;50.916;6.988;2022-11-13T07:54:52;2.83;;;2.63;;
75303;SDS011;64042;50.916;6.988;2022-11-13T07:57:17;2.07;;;1.97;;
75303;SDS011;64042;50.916;6.988;2022-11-13T07:59:44;3.30;;;3.00;;
75303;SDS011;64042;50.916;6.988;2022-11-13T08:02:13;3.40;;;2.60;;
75303;SDS011;64042;50.916;6.988;2022-11-13T08:04:39;3.05;;;2.85;;
75303;SDS011;64042;50.916;6.988;2022-11-13T08:07:04;5.40;;;4.90;;
75303;SDS011;64042;50.916;6.988;2022-11-13T08:09:29;5.20;;;4.70;;
75303;SDS011;64042;50.916;6.988;2022-11-13T08:11:55;3.80;;;3.50;;
75303;SDS011;64042;50.916;6.988;2022-11-13T08:14:20;4.03;;;3.53;;
75303;SDS011;64042;50.916;6.988;2022-11-13T08:16:45;5.15;;;4.75;;
75303;SDS011;64042;50.916;6.988;2022-11-13T08:19:11;5.40;;;5.00;;
75303;SDS011;64042;50.916;6.988;2022-11-13T08:21:36;7.05;;;6.55;;
75303;SDS011;64042;50.916;6.988;2022-11-13T08:24:01;5.97;;;5.47;;
75303;SDS011;64042;50.916;6.988;2022-11-13T08:26:26;5.95;;;5.25;;
75303;SDS011;64042;50.916;6.988;2022-11-13T08:28:52;6.27;;;5.67;;
75303;SDS011;64042;50.916;6.988;2022-11-13T08:31:17;5.93;;;5.40;;
75303;SDS011;64042;50.916;6.988;2022-11-13T08:33:42;7.20;;;6.60;;
75303;SDS011;64042;50.916;6.988;2022-11-13T08:36:08;6.47;;;5.97;;
75303;SDS011;64042;50.916;6.988;2022-11-13T08:38:34;6.68;;;6.18;;
75303;SDS011;64042;50.916;6.988;2022-11-13T08:40:59;6.18;;;5.57;;
75303;SDS011;64042;50.916;6.988;2022-11-13T08:43:26;6.47;;;5.97;;
75303;SDS011;64042;50.916;6.988;2022-11-13T08:45:51;5.63;;;5.13;;
75303;SDS011;64042;50.916;6.988;2022-11-13T08:48:16;6.63;;;5.87;;
75303;SDS011;64042;50.916;6.988;2022-11-13T08:50:41;6.93;;;6.25;;
75303;SDS011;64042;50.916;6.988;2022-11-13T08:53:07;6.07;;;5.57;;
75303;SDS011;64042;50.916;6.988;2022-11-13T08:55:32;7.53;;;5.65;;
75303;SDS011;64042;50.916;6.988;2022-11-13T08:57:58;7.40;;;6.80;;
75303;SDS011;64042;50.916;6.988;2022-11-13T09:00:24;5.57;;;5.07;;
75303;SDS011;64042;50.916;6.988;2022-11-13T09:02:52;6.20;;;5.60;;
75303;SDS011;64042;50.916;6.988;2022-11-13T09:05:19;7.07;;;6.47;;
75303;SDS011;64042;50.916;6.988;2022-11-13T09:07:44;8.95;;;7.60;;
75303;SDS011;64042;50.916;6.988;2022-11-13T09:10:09;9.13;;;8.52;;
75303;SDS011;64042;50.916;6.988;2022-11-13T09:12:35;6.25;;;5.68;;
75303;SDS011;64042;50.916;6.988;2022-11-13T09:15:00;5.77;;;5.27;;
75303;SDS011;64042;50.916;6.988;2022-11-13T09:17:25;5.70;;;5.30;;
75303;SDS011;64042;50.916;6.988;2022-11-13T09:19:50;6.23;;;5.73;;
75303;SDS011;64042;50.916;6.988;2022-11-13T09:22:16;5.60;;;5.10;;
75303;SDS011;64042;50.916;6.988;2022-11-13T09:24:41;7.07;;;6.47;;
75303;SDS011;64042;50.916;6.988;2022-11-13T09:27:06;5.23;;;4.83;;
75303;SDS011;64042;50.916;6.988;2022-11-13T09:29:32;5.10;;;4.60;;
75303;SDS011;64042;50.916;6.988;2022-11-13T09:31:57;5.32;;;4.93;;
75303;SDS011;64042;50.916;6.988;2022-11-13T09:34:24;5.75;;;5.30;;
75303;SDS011;64042;50.916;6.988;2022-11-13T09:36:50;4.68;;;4.28;;
75303;SDS011;64042;50.916;6.988;2022-11-13T09:39:15;5.50;;;5.00;;
75303;SDS011;64042;50.916;6.988;2022-11-13T09:41:43;5.32;;;4.93;;
75303;SDS011;64042;50.916;6.988;2022-11-13T09:44:19;4.72;;;4.32;;
75303;SDS011;64042;50.916;6.988;2022-11-13T09:46:50;4.75;;;4.28;;
75303;SDS011;64042;50.916;6.988;2022-11-13T09:49:30;12.75;;;6.03;;
75303;SDS011;64042;50.916;6.988;2022-11-13T09:51:58;12.68;;;5.80;;
75303;SDS011;64042;50.916;6.988;2022-11-13T09:54:29;12.98;;;8.18;;
75303;SDS011;64042;50.916;6.988;2022-11-13T10:02:20;9.10;;;4.93;;
75303;SDS011;64042;50.916;6.988;2022-11-13T10:05:04;9.30;;;5.63;;
75303;SDS011;64042;50.916;6.988;2022-11-13T10:10:25;5.43;;;4.25;;
75303;SDS011;64042;50.916;6.988;2022-11-13T10:12:57;6.65;;;5.32;;
75303;SDS011;64042;50.916;6.988;2022-11-13T10:15:25;9.65;;;4.70;;
75303;SDS011;64042;50.916;6.988;2022-11-13T10:17:54;4.93;;;3.85;;
75303;SDS011;64042;50.916;6.988;2022-11-13T10:20:37;8.38;;;3.83;;
75303;SDS011;64042;50.916;6.988;2022-11-13T10:23:13;6.95;;;4.97;;
75303;SDS011;64042;50.916;6.988;2022-11-13T10:25:42;5.25;;;4.15;;
75303;SDS011;64042;50.916;6.988;2022-11-13T10:28:15;11.63;;;4.03;;
75303;SDS011;64042;50.916;6.988;2022-11-13T10:30:47;9.73;;;4.40;;
75303;SDS011;64042;50.916;6.988;2022-11-13T10:33:16;8.27;;;3.40;;
75303;SDS011;64042;50.916;6.988;2022-11-13T10:36:00;5.60;;;4.15;;
75303;SDS011;64042;50.916;6.988;2022-11-13T10:38:28;4.72;;;3.58;;
75303;SDS011;64042;50.916;6.988;2022-11-13T10:41:10;6.30;;;4.50;;
75303;SDS011;64042;50.916;6.988;2022-11-13T10:43:47;4.90;;;4.05;;
75303;SDS011;64042;50.916;6.988;2022-11-13T10:46:21;7.97;;;5.53;;
75303;SDS011;64042;50.916;6.988;2022-11-13T10:48:49;5.15;;;3.30;;
75303;SDS011;64042;50.916;6.988;2022-11-13T10:51:20;4.25;;;3.50;;
75303;SDS011;64042;50.916;6.988;2022-11-13T10:53:48;8.02;;;3.67;;
75303;SDS011;64042;50.916;6.988;2022-11-13T10:56:27;5.93;;;3.10;;
75303;SDS011;64042;50.916;6.988;2022-11-13T10:59:10;5.63;;;3.33;;
75303;SDS011;64042;50.916;6.988;2022-11-13T11:01:36;7.60;;;3.85;;
75303;SDS011;64042;50.916;6.988;2022-11-13T11:04:03;4.78;;;3.85;;
75303;SDS011;64042;50.916;6.988;2022-11-13T11:06:30;5.50;;;3.55;;
75303;SDS011;64042;50.916;6.988;2022-11-13T11:09:57;3.95;;;3.40;;
75303;SDS011;64042;50.916;6.988;2022-11-13T11:14:42;4.13;;;3.05;;
75303;SDS011;64042;50.916;6.988;2022-11-13T11:17:13;5.35;;;3.38;;
75303;SDS011;64042;50.916;6.988;2022-11-13T11:19:39;4.70;;;3.00;;
75303;SDS011;64042;50.916;6.988;2022-11-13T11:22:15;5.18;;;3.38;;
75303;SDS011;64042;50.916;6.988;2022-11-13T11:24:44;3.80;;;3.30;;
75303;SDS011;64042;50.916;6.988;2022-11-13T11:27:21;4.15;;;3.10;;
75303;SDS011;64042;50.916;6.988;2022-11-13T11:30:01;3.78;;;3.20;;
75303;SDS011;64042;50.916;6.988;2022-11-13T11:32:37;5.18;;;3.15;;
75303;SDS011;64042;50.916;6.988;2022-11-13T11:37:46;5.70;;;3.60;;
75303;SDS011;64042;50.916;6.988;2022-11-13T11:40:29;3.88;;;3.47;;
75303;SDS011;64042;50.916;6.988;2022-11-13T11:43:03;4.47;;;3.15;;
75303;SDS011;64042;50.916;6.988;2022-11-13T11:45:39;4.05;;;2.90;;
75303;SDS011;64042;50.916;6.988;2022-11-13T11:48:13;5.22;;;3.08;;
75303;SDS011;64042;50.916;6.988;2022-11-13T11:50:46;3.33;;;2.78;;
75303;SDS011;64042;50.916;6.988;2022-11-13T11:53:36;4.03;;;3.08;;
75303;SDS011;64042;50.916;6.988;2022-11-13T11:56:33;4.55;;;2.83;;
75303;SDS011;64042;50.916;6.988;2022-11-13T12:10:23;3.33;;;3.08;;
75303;SDS011;64042;50.916;6.988;2022-11-13T12:12:55;3.67;;;3.13;;
75303;SDS011;64042;50.916;6.988;2022-11-13T12:27:04;2.88;;;2.67;;
75303;SDS011;64042;50.916;6.988;2022-11-13T12:32:23;3.15;;;2.85;;
75303;SDS011;64042;50.916;6.988;2022-11-13T12:34:58;2.92;;;2.72;;
75303;SDS011;64042;50.916;6.988;2022-11-13T12:37:27;2.90;;;2.40;;
75303;SDS011;64042;50.916;6.988;2022-11-13T12:40:05;3.72;;;2.85;;
75303;SDS011;64042;50.916;6.988;2022-11-13T12:42:38;3.15;;;2.65;;
75303;SDS011;64042;50.916;6.988;2022-11-13T12:45:21;5.25;;;3.55;;
75303;SDS011;64042;50.916;6.988;2022-11-13T12:47:55;3.10;;;2.88;;
75303;SDS011;64042;50.916;6.988;2022-11-13T12:50:32;3.85;;;3.25;;
75303;SDS011;64042;50.916;6.988;2022-11-13T12:52:58;3.73;;;3.33;;
75303;SDS011;64042;50.916;6.988;2022-11-13T12:55:35;3.30;;;3.00;;
75303;SDS011;64042;50.916;6.988;2022-11-13T12:58:08;3.53;;;3.30;;
75303;SDS011;64042;50.916;6.988;2022-11-13T13:00:37;3.00;;;2.80;;
75303;SDS011;64042;50.916;6.988;2022-11-13T13:03:09;3.35;;;3.03;;
75303;SDS011;64042;50.916;6.988;2022-11-13T13:08:45;2.85;;;2.65;;
75303;SDS011;64042;50.916;6.988;2022-11-13T13:17:18;4.85;;;4.45;;
75303;SDS011;64042;50.916;6.988;2022-11-13T13:22:30;2.72;;;2.53;;
75303;SDS011;64042;50.916;6.988;2022-11-13T13:25:21;3.28;;;2.88;;
75303;SDS011;64042;50.916;6.988;2022-11-13T13:30:47;3.53;;;3.22;;
75303;SDS011;64042;50.916;6.988;2022-11-13T13:38:50;2.55;;;2.35;;
75303;SDS011;64042;50.916;6.988;2022-11-13T13:43:52;2.75;;;2.35;;
75303;SDS011;64042;50.916;6.988;2022-11-13T13:46:23;3.65;;;2.90;;
75303;SDS011;64042;50.916;6.988;2022-11-13T13:48:50;3.17;;;2.88;;
75303;SDS011;64042;50.916;6.988;2022-11-13T13:53:51;4.53;;;2.38;;
75303;SDS011;64042;50.916;6.988;2022-11-13T13:56:17;2.90;;;2.22;;
75303;SDS011;64042;50.916;6.988;2022-11-13T13:58:44;5.53;;;3.47;;
75303;SDS011;64042;50.916;6.988;2022-11-13T14:01:11;7.20;;;3.05;;
75303;SDS011;64042;50.916;6.988;2022-11-13T14:03:38;4.00;;;2.70;;
75303;SDS011;64042;50.916;6.988;2022-11-13T14:06:07;6.20;;;2.73;;
75303;SDS011;64042;50.916;6.988;2022-11-13T14:08:33;6.75;;;2.58;;
75303;SDS011;64042;50.916;6.988;2022-11-13T14:11:01;7.00;;;2.53;;
75303;SDS011;64042;50.916;6.988;2022-11-13T14:13:27;3.50;;;3.20;;
75303;SDS011;64042;50.916;6.988;2022-11-13T14:16:03;4.60;;;3.08;;
75303;SDS011;64042;50.916;6.988;2022-11-13T14:18:30;4.07;;;2.22;;
75303;SDS011;64042;50.916;6.988;2022-11-13T14:20:59;5.70;;;2.75;;
75303;SDS011;64042;50.916;6.988;2022-11-13T14:25:56;7.18;;;2.47;;
75303;SDS011;64042;50.916;6.988;2022-11-13T14:28:23;7.03;;;3.60;;
75303;SDS011;64042;50.916;6.988;2022-11-13T14:30:57;7.38;;;3.47;;
75303;SDS011;64042;50.916;6.988;2022-11-13T14:33:33;6.40;;;3.25;;
75303;SDS011;64042;50.916;6.988;2022-11-13T14:36:00;6.22;;;3.00;;
75303;SDS011;64042;50.916;6.988;2022-11-13T14:38:31;6.80;;;3.50;;
75303;SDS011;64042;50.916;6.988;2022-11-13T14:40:58;6.70;;;2.90;;
75303;SDS011;64042;50.916;6.988;2022-11-13T14:43:29;7.45;;;3.15;;
75303;SDS011;64042;50.916;6.988;2022-11-13T14:45:59;6.75;;;2.83;;
75303;SDS011;64042;50.916;6.988;2022-11-13T14:48:29;7.03;;;3.22;;
75303;SDS011;64042;50.916;6.988;2022-11-13T14:50:59;7.53;;;3.67;;
75303;SDS011;64042;50.916;6.988;2022-11-13T14:53:27;8.07;;;2.63;;
75303;SDS011;64042;50.916;6.988;2022-11-13T14:56:03;8.63;;;3.22;;
75303;SDS011;64042;50.916;6.988;2022-11-13T15:01:22;6.95;;;3.15;;
75303;SDS011;64042;50.916;6.988;2022-11-13T15:03:48;7.10;;;2.80;;
75303;SDS011;64042;50.916;6.988;2022-11-13T15:06:18;5.70;;;3.13;;
75303;SDS011;64042;50.916;6.988;2022-11-13T15:08:45;7.00;;;3.40;;
75303;SDS011;64042;50.916;6.988;2022-11-13T15:11:12;5.38;;;3.25;;
75303;SDS011;64042;50.916;6.988;2022-11-13T15:13:39;7.10;;;3.00;;
75303;SDS011;64042;50.916;6.988;2022-11-13T15:16:04;5.57;;;3.20;;
75303;SDS011;64042;50.916;6.988;2022-11-13T15:18:30;7.28;;;3.20;;
75303;SDS011;64042;50.916;6.988;2022-11-13T15:20:56;5.53;;;3.60;;
75303;SDS011;64042;50.916;6.988;2022-11-13T15:23:21;6.75;;;2.83;;
75303;SDS011;64042;50.916;6.988;2022-11-13T15:25:49;7.15;;;2.70;;
75303;SDS011;64042;50.916;6.988;2022-11-13T15:28:14;5.03;;;3.00;;
75303;SDS011;64042;50.916;6.988;2022-11-13T15:30:39;5.77;;;3.10;;
75303;SDS011;64042;50.916;6.988;2022-11-13T15:33:09;7.70;;;2.95;;
75303;SDS011;64042;50.916;6.988;2022-11-13T15:35:37;10.23;;;4.43;;
75303;SDS011;64042;50.916;6.988;2022-11-13T15:38:03;5.78;;;3.17;;
75303;SDS011;64042;50.916;6.988;2022-11-13T15:40:28;6.83;;;3.67;;
75303;SDS011;64042;50.916;6.988;2022-11-13T15:42:54;5.63;;;3.80;;
75303;SDS011;64042;50.916;6.988;2022-11-13T15:45:21;5.65;;;3.08;;
75303;SDS011;64042;50.916;6.988;2022-11-13T15:47:46;6.47;;;3.40;;
75303;SDS011;64042;50.916;6.988;2022-11-13T15:50:11;6.10;;;3.10;;
75303;SDS011;64042;50.916;6.988;2022-11-13T15:52:38;6.65;;;3.97;;
75303;SDS011;64042;50.916;6.988;2022-11-13T15:55:26;6.93;;;4.15;;
75303;SDS011;64042;50.916;6.988;2022-11-13T15:57:54;7.72;;;2.80;;
75303;SDS011;64042;50.916;6.988;2022-11-13T16:00:21;5.05;;;2.83;;
75303;SDS011;64042;50.916;6.988;2022-11-13T16:02:51;6.43;;;3.28;;
75303;SDS011;64042;50.916;6.988;2022-11-13T16:05:19;6.90;;;2.83;;
75303;SDS011;64042;50.916;6.988;2022-11-13T16:07:47;4.75;;;2.80;;
75303;SDS011;64042;50.916;6.988;2022-11-13T16:10:12;5.70;;;2.57;;
75303;SDS011;64042;50.916;6.988;2022-11-13T16:12:39;5.22;;;2.67;;